EDT,Max TemperatureF,Mean TemperatureF,Min TemperatureF,Max Dew PointF,MeanDew PointF,Min DewpointF,Max Humidity, Mean Humidity, Min Humidity, Max Sea Level PressureIn, Mean Sea Level PressureIn, Min Sea Level PressureIn, Max VisibilityMiles, Mean VisibilityMiles, Min VisibilityMiles, Max Wind SpeedMPH, Mean Wind SpeedMPH, Max Gust SpeedMPH,PrecipitationIn, CloudCover, Events, WindDirDegrees
2012-3-1,33,31,28,28,26,21,92,77,61,29.98,29.84,29.78,10,3,0,21,7,28,0.15,8,Fog-Snow,164
2012-3-2,38,33,28,28,24,21,75,70,64,30.04,29.97,29.74,10,10,2,22,11,31,T,8,Snow,171
2012-3-3,50,42,33,39,29,19,89,60,31,29.70,29.47,29.29,10,9,6,24,13,35,0.03,6,Rain-Snow,200
2012-3-4,39,27,15,27,21,10,85,65,44,29.73,29.61,29.54,10,4,1,20,9,28,0.03,8,Snow,342
2012-3-5,22,16,9,10,4,-3,80,61,41,30.39,29.94,29.72,10,6,1,17,8,21,0.03,6,Snow,353
2012-3-6,34,19,4,9,4,0,88,59,29,30.59,30.51,30.41,10,10,10,14,5,22,0.00,1,,153
2012-3-7,56,45,34,28,21,11,44,37,30,30.40,30.22,30.07,10,10,10,26,17,39,0.00,2,,182
2012-3-8,61,51,41,49,39,27,77,56,35,30.08,29.80,29.58,10,9,2,30,19,41,0.10,6,Rain,213
2012-3-9,41,34,27,28,20,13,69,53,37,30.17,30.05,29.80,10,8,0,23,8,29,0.04,6,Fog-Snow,319
2012-3-10,35,28,21,25,21,13,92,70,47,30.54,30.33,30.15,10,6,1,15,6,20,0.07,6,Snow,325
2012-3-11,55,43,30,28,21,15,64,47,30,30.39,30.26,30.17,10,10,10,22,11,30,0.00,0,,188
2012-3-12,63,47,30,34,30,26,85,58,30,30.27,30.18,30.03,10,10,10,8,2,12,0.00,1,,207
2012-3-13,67,57,46,47,39,33,71,56,40,30.02,29.89,29.84,10,9,2,21,9,30,0.10,6,Rain,202
2012-3-14,57,46,34,40,36,33,92,74,55,30.27,30.14,29.94,10,8,1,14,5,17,0.03,7,Rain,325
2012-3-15,57,45,33,41,34,30,96,68,40,30.35,30.28,30.18,10,5,1,18,4,24,0.09,7,Rain-Thunderstorm,305
2012-3-16,48,45,41,43,41,38,92,84,76,30.26,30.14,30.06,10,7,1,22,10,30,0.12,8,Rain,190
2012-3-17,61,50,38,41,38,36,100,70,40,30.37,30.30,30.22,10,4,0,12,4,16,0.00,5,Fog,259
2012-3-18,76,64,51,48,44,37,71,55,38,30.24,30.15,30.06,10,10,10,22,11,28,0.00,1,,193
2012-3-19,79,64,49,52,50,45,93,66,39,30.19,30.14,30.09,10,10,7,15,4,18,T,2,Rain,197
2012-3-20,80,64,47,53,50,45,93,65,36,30.27,30.22,30.17,10,9,2,12,2,15,0.00,1,,224
2012-3-21,81,65,49,54,49,43,93,63,33,30.32,30.24,30.17,10,10,9,16,6,21,0.00,0,,175
2012-3-22,81,70,58,55,53,51,78,59,39,30.18,30.12,30.05,10,10,10,18,8,24,T,2,,241
2012-3-23,66,57,47,48,34,23,86,55,23,30.22,30.16,30.11,10,10,10,18,7,24,0.00,1,,354
2012-3-24,47,43,39,34,24,16,49,39,28,30.21,30.13,30.00,10,10,10,12,7,15,T,6,Rain,335
2012-3-25,48,44,40,41,39,33,89,77,65,29.99,29.83,29.72,10,10,5,17,8,24,0.03,8,Rain,183
2012-3-26,46,37,27,43,19,-3,58,43,27,30.17,29.91,29.68,10,9,2,33,21,41,0.09,6,Rain-Snow,326
2012-3-27,38,30,22,12,1,-7,47,31,15,30.36,30.25,30.10,10,10,10,25,9,31,0.00,0,,356
2012-3-28,49,41,32,39,24,7,79,56,32,30.10,29.74,29.50,10,10,2,28,11,37,0.05,8,Rain-Snow,166
2012-3-29,38,36,33,34,30,24,92,78,64,29.99,29.81,29.63,10,7,3,20,10,25,T,8,Snow,345
2012-3-30,42,35,27,20,15,12,56,43,30,30.13,30.05,29.99,10,10,10,22,9,28,0.00,2,,345
2012-3-31,48,39,29,22,20,16,69,49,28,30.05,29.97,29.90,10,10,9,13,4,15,0.00,3,,351